Etusivu
METAR-TAF:

METAR-TAF

Lentoasemat :

Midland, Texas, Yhdysvallat

Leveyspiiri: 31-56-52N, Pituuspiiri: 102-12-31W, korkeus merenpinnasta: 875 m

Tämänhetkinen sää

Tämä raportti tehtiin 1 tunti ja 4 minuuttia sitten, kello 07.53 UTC
Tuuli 10 kn kaakosta
Lämpötila 23°C
Kosteus 69%
Ilmanpaine 1018 hPa
Näkyvyys: 16.1 km
selkeää

METAR: KMAF 260753Z AUTO 14010KT 10SM CLR 23/17 A3007 RMK AO2 SLP130 T02330172

Aika: 03:57 (08:57 UTC)

Sääennuste

Tämä raportti tehtiin 3 tuntia ja 27 minuuttia sitten, kello 05.30 UTC
Ennuste voimassa 26. päivästä klo 06 UTC - 27. päivään klo 06 UTC
Tuuli 12 kn etelästä/kaakosta
Näkyvyys: 10 km
Hajanaisia pilviä 25000 ft:n korkeudessa
From 26. päivästä klo 1600 UTC
Tuuli 14 kn etelästä/kaakosta puuskistuen 24 kn:hen
Näkyvyys: 10 km
selkeää
From 27. päivästä klo 0200 UTC
Tuuli 10 kn etelästä/kaakosta
Näkyvyys: 10 km
selkeää

TAF: KMAF 260530Z 2606/2706 15012KT P6SM SCT250 FM261600 16014G24KT P6SM SKC FM270200 15010KT P6SM SKC

Säähavainnot ja -ennusteet yli 4000 lentoasemalta (METAR- ja TAF-raportit).

Käytössä olevat sääasemat on merkitty karttaan keltaisilla ja punaisilla pisteillä.

Aseta hiiri pisteen päälle nähdäksesi sääaseman nimen.

Klikkaa sitten nähdäksesi säähavainnot ja -ennusteet.

Kartan vaihtaminen: klikkaa mustalla rastilla varustettuja vihreitä pisteitä, niin voit zoomata sisään; viivalla varustettua vihreää pistettä, niin voit zoomata ulos tai vihreitä nuolia, niin pääset viereisille kartoille.


METAR-TAF: